Time;durP1;ratioP1;P1;durP2;ratioP2;P2;SDS_P1;SDS_P2;PMS_P1;PMS_P2;Temp;Humidity;BMP_temperature;BMP_pressure;BME280_temperature;BME280_humidity;BME280_pressure;Samples;Min_cycle;Max_cycle;Signal;HPM_P1;HPM_P2
2023/01/21 00:00:11;;;;;;;;;;;;;;;;;;5053859;28;20347;-79
2023/01/21 00:02:37;;;;;;;;;;;;;;;;;;5053820;28;19909;-79
2023/01/21 00:05:03;;;;;;;;;;;;;;;;;;5053653;28;19955;-80
2023/01/21 00:07:29;;;;;;;;;;;;;;;;;;5053458;28;19908;-80
2023/01/21 00:09:55;;;;;;;;;;;;;;;;;;5054955;28;20361;-80
2023/01/21 00:12:20;;;;;;;;;;;;;;;;;;5053560;28;19920;-79
2023/01/21 00:14:46;;;;;;;;;;;;;;;;;;5054672;28;19917;-79
2023/01/21 00:17:12;;;;;;;;;;;;;;;;;;5054764;28;19966;-80
2023/01/21 00:19:38;;;;;;;;;;;;;;;;;;5053715;28;19991;-80
2023/01/21 00:22:04;;;;;;;;;;;;;;;;;;5053485;28;20281;-79
2023/01/21 00:24:30;;;;;;;;;;;;;;;;;;5054221;28;19913;-79
2023/01/21 00:26:56;;;;;;;;;;;;;;;;;;5052818;28;19916;-79
2023/01/21 00:29:22;;;;;;;;;;;;;;;;;;5053124;28;19909;-80
2023/01/21 00:31:48;;;;;;;;;;;;;;;;;;5052578;28;19909;-79
2023/01/21 00:34:14;;;;;;;;;;;;;;;;;;5054234;28;19909;-78
2023/01/21 00:36:40;;;;;;;;;;;;;;;;;;5054069;28;19909;-79
2023/01/21 00:39:05;;;;;;;;;;;;;;;;;;5052845;28;19909;-79
2023/01/21 00:41:31;;;;;;;;;;;;;;;;;;5053254;28;19913;-79
2023/01/21 00:43:57;;;;;;;;;;;;;;;;;;5053299;28;19909;-79
2023/01/21 00:46:23;;;;;;;;;;;;;;;;;;5054129;28;20372;-79
2023/01/21 00:48:49;;;;;;;;;;;;;;;;;;5052751;28;19916;-80
2023/01/21 00:51:15;;;;;;;;;;;;;;;;;;5052920;28;20377;-79
2023/01/21 00:53:41;;;;;;;;;;;;;;;;;;5052778;28;19893;-79
2023/01/21 00:56:07;;;;;;;;;;;;;;;;;;5070853;28;20064;-80
2023/01/21 00:58:33;;;;;;;;;;;;;;;;;;5071770;28;20288;-80
2023/01/21 01:00:59;;;;;;;;;;;;;;;;;;5073507;28;19927;-80
2023/01/21 01:03:25;;;;;;;;;;;;;;;;;;5072500;28;20004;-78
2023/01/21 01:05:50;;;;;;;;;;;;;;;;;;5072275;28;19908;-80
2023/01/21 01:08:16;;;;;;;;;;;;;;;;;;5072135;28;19916;-80
2023/01/21 01:10:42;;;;;;;;;;;;;;;;;;5073705;28;19909;-79
2023/01/21 01:13:08;;;;;;;;;;;;;;;;;;5072503;28;20293;-79
2023/01/21 01:15:34;;;;;;;;;;;;;;;;;;5071755;28;19917;-79
2023/01/21 01:18:00;;;;;;;;;;;;;;;;;;5072132;28;19909;-79
2023/01/21 01:20:26;;;;;;;;;;;;;;;;;;5072310;28;19913;-80
2023/01/21 01:22:52;;;;;;;;;;;;;;;;;;5071939;28;19931;-79
2023/01/21 01:25:18;;;;;;;;;;;;;;;;;;5073289;28;19909;-78
2023/01/21 01:27:43;;;;;;;;;;;;;;;;;;5071597;28;19912;-79
2023/01/21 01:30:09;;;;;;;;;;;;;;;;;;5071258;28;20315;-78
2023/01/21 01:32:35;;;;;;;;;;;;;;;;;;5071502;28;19908;-80
2023/01/21 01:35:01;;;;;;;;;;;;;;;;;;5072024;28;19959;-79
2023/01/21 01:37:27;;;;;;;;;;;;;;;;;;5073052;28;19966;-79
2023/01/21 01:39:53;;;;;;;;;;;;;;;;;;5073088;28;20291;-79
2023/01/21 01:42:19;;;;;;;;;;;;;;;;;;5072060;28;19915;-79
2023/01/21 01:44:45;;;;;;;;;;;;;;;;;;5071940;28;19948;-80
2023/01/21 01:47:10;;;;;;;;;;;;;;;;;;5071806;28;19919;-79
2023/01/21 01:49:36;;;;;;;;;;;;;;;;;;5071818;28;19913;-80
2023/01/21 01:52:02;;;;;;;;;;;;;;;;;;5071811;28;20288;-80
2023/01/21 01:54:28;;;;;;;;;;;;;;;;;;5071947;28;19909;-79
2023/01/21 01:56:54;;;;;;;;;;;;;;;;;;5071934;28;19916;-79
2023/01/21 01:59:20;;;;;;;;;;;;;;;;;;5071814;28;19908;-80
2023/01/21 02:01:46;;;;;;;;;;;;;;;;;;5071629;28;19916;-79
2023/01/21 02:04:12;;;;;;;;;;;;;;;;;;5072873;28;20337;-79
2023/01/21 02:06:38;;;;;;;;;;;;;;;;;;5071986;28;19913;-79
2023/01/21 02:09:04;;;;;;;;;;;;;;;;;;5071491;28;19951;-80
2023/01/21 02:11:29;;;;;;;;;;;;;;;;;;5071839;28;19909;-79
2023/01/21 02:13:55;;;;;;;;;;;;;;;;;;5071785;28;19913;-79
2023/01/21 02:16:21;;;;;;;;;;;;;;;;;;5071752;28;20384;-79
2023/01/21 02:18:47;;;;;;;;;;;;;;;;;;5072715;28;19909;-79
2023/01/21 02:21:13;;;;;;;;;;;;;;;;;;5072746;28;20021;-80
2023/01/21 02:23:39;;;;;;;;;;;;;;;;;;5071611;28;19908;-79
2023/01/21 02:26:05;;;;;;;;;;;;;;;;;;5072703;28;19923;-80
2023/01/21 02:28:31;;;;;;;;;;;;;;;;;;5071162;28;19912;-79
2023/01/21 02:30:57;;;;;;;;;;;;;;;;;;5071572;28;20360;-80
2023/01/21 02:33:22;;;;;;;;;;;;;;;;;;5071651;28;19909;-79
2023/01/21 02:35:48;;;;;;;;;;;;;;;;;;5072441;28;19908;-80
2023/01/21 02:38:14;;;;;;;;;;;;;;;;;;5072725;28;19915;-80
2023/01/21 02:40:40;;;;;;;;;;;;;;;;;;5070768;28;19967;-79
2023/01/21 02:43:06;;;;;;;;;;;;;;;;;;5074202;28;19915;-79
2023/01/21 02:45:32;;;;;;;;;;;;;;;;;;5076020;28;19915;-79
2023/01/21 02:48:04;;;;;;;;;;;;;;;;;;5076172;28;19909;-79
2023/01/21 02:50:30;;;;;;;;;;;;;;;;;;5075125;28;19921;-79
2023/01/21 02:52:56;;;;;;;;;;;;;;;;;;5075107;28;20330;-79
2023/01/21 02:55:22;;;;;;;;;;;;;;;;;;5074818;28;20003;-79
2023/01/21 02:57:48;;;;;;;;;;;;;;;;;;5075090;22;19925;-76
2023/01/21 03:00:14;;;;;;;;;;;;;;;;;;5056095;28;19916;-75
2023/01/21 03:02:40;;;;;;;;;;;;;;;;;;5055937;28;19944;-76
2023/01/21 03:05:06;;;;;;;;;;;;;;;;;;5055198;28;19909;-76
2023/01/21 03:07:32;;;;;;;;;;;;;;;;;;5054240;28;19905;-76
2023/01/21 03:09:58;;;;;;;;;;;;;;;;;;5054356;28;19913;-76
2023/01/21 03:12:24;;;;;;;;;;;;;;;;;;5054410;28;19912;-76
2023/01/21 03:17:34;;;;;;;;;;;;;;;;;;5055494;28;19915;-76
2023/01/21 03:20:00;;;;;;;;;;;;;;;;;;5055432;28;19913;-76
2023/01/21 03:22:26;;;;;;;;;;;;;;;;;;5055469;28;20357;-76
2023/01/21 03:24:52;;;;;;;;;;;;;;;;;;5053981;28;19960;-76
2023/01/21 03:27:18;;;;;;;;;;;;;;;;;;5055024;28;19908;-77
2023/01/21 03:29:43;;;;;;;;;;;;;;;;;;5054276;28;19913;-76
2023/01/21 03:32:09;;;;;;;;;;;;;;;;;;5054090;28;19940;-77
2023/01/21 03:34:35;;;;;;;;;;;;;;;;;;5055351;28;19909;-76
2023/01/21 03:37:01;;;;;;;;;;;;;;;;;;5054007;28;20272;-75
2023/01/21 03:39:27;;;;;;;;;;;;;;;;;;5055069;28;19909;-75
2023/01/21 03:41:53;;;;;;;;;;;;;;;;;;5053744;28;19917;-75
2023/01/21 03:44:19;;;;;;;;;;;;;;;;;;5054823;28;20278;-76
2023/01/21 03:46:45;;;;;;;;;;;;;;;;;;5053588;28;19909;-76
2023/01/21 03:49:11;;;;;;;;;;;;;;;;;;5054895;28;19931;-76
2023/01/21 03:51:37;;;;;;;;;;;;;;;;;;5054887;28;20361;-76
2023/01/21 03:54:02;;;;;;;;;;;;;;;;;;5053890;28;19913;-76
2023/01/21 03:56:28;;;;;;;;;;;;;;;;;;5052720;28;19935;-76
2023/01/21 03:58:54;;;;;;;;;;;;;;;;;;5053462;28;19913;-75
2023/01/21 04:01:20;;;;;;;;;;;;;;;;;;5054202;28;19927;-76
2023/01/21 04:03:46;;;;;;;;;;;;;;;;;;5056273;28;19909;-76
2023/01/21 04:06:12;;;;;;;;;;;;;;;;;;5056900;28;19920;-75
2023/01/21 04:08:38;;;;;;;;;;;;;;;;;;5056101;28;19909;-74
2023/01/21 04:11:04;;;;;;;;;;;;;;;;;;5054276;28;19909;-76
2023/01/21 04:13:30;;;;;;;;;;;;;;;;;;5054804;28;19909;-78
2023/01/21 04:15:55;;;;;;;;;;;;;;;;;;5054373;28;19909;-76
2023/01/21 04:18:21;;;;;;;;;;;;;;;;;;5054209;28;20320;-76
2023/01/21 04:20:47;;;;;;;;;;;;;;;;;;5052737;28;19912;-76
2023/01/21 04:23:13;;;;;;;;;;;;;;;;;;5054224;28;19931;-76
2023/01/21 04:25:39;;;;;;;;;;;;;;;;;;5053929;28;19955;-76
2023/01/21 04:28:05;;;;;;;;;;;;;;;;;;5054377;28;20004;-75
2023/01/21 04:30:31;;;;;;;;;;;;;;;;;;5053386;28;20333;-75
2023/01/21 04:32:57;;;;;;;;;;;;;;;;;;5054304;28;19909;-76
2023/01/21 04:35:23;;;;;;;;;;;;;;;;;;5054350;28;19919;-74
2023/01/21 04:37:48;;;;;;;;;;;;;;;;;;5054198;28;19908;-76
2023/01/21 04:40:14;;;;;;;;;;;;;;;;;;5052975;28;19978;-76
2023/01/21 04:42:40;;;;;;;;;;;;;;;;;;5054013;28;20288;-76
2023/01/21 04:45:06;;;;;;;;;;;;;;;;;;5053618;28;19916;-76
2023/01/21 04:47:32;;;;;;;;;;;;;;;;;;5054088;28;20007;-76
2023/01/21 04:49:58;;;;;;;;;;;;;;;;;;5052491;28;19923;-76
2023/01/21 04:52:24;;;;;;;;;;;;;;;;;;5053661;28;19908;-76
2023/01/21 04:54:50;;;;;;;;;;;;;;;;;;5053239;28;19909;-76
2023/01/21 04:57:16;;;;;;;;;;;;;;;;;;5053819;28;20433;-76
2023/01/21 04:59:41;;;;;;;;;;;;;;;;;;5053563;28;20446;-75
2023/01/21 05:02:07;;;;;;;;;;;;;;;;;;5053655;28;19909;-76
2023/01/21 05:04:33;;;;;;;;;;;;;;;;;;5052362;28;19908;-77
2023/01/21 05:06:59;;;;;;;;;;;;;;;;;;5053329;28;19948;-76
2023/01/21 05:09:26;;;;;;;;;;;;;;;;;;5053176;28;19909;-77
2023/01/21 05:11:51;;;;;;;;;;;;;;;;;;5053512;28;19951;-76
2023/01/21 05:14:17;;;;;;;;;;;;;;;;;;5053634;28;19909;-76
2023/01/21 05:16:43;;;;;;;;;;;;;;;;;;5052079;28;19975;-76
2023/01/21 05:19:09;;;;;;;;;;;;;;;;;;5053551;28;19908;-76
2023/01/21 05:21:35;;;;;;;;;;;;;;;;;;5053500;28;19921;-76
2023/01/21 05:24:01;;;;;;;;;;;;;;;;;;5053246;28;19908;-76
2023/01/21 05:26:27;;;;;;;;;;;;;;;;;;5051704;28;19912;-75
2023/01/21 05:28:53;;;;;;;;;;;;;;;;;;5052611;28;19913;-79
2023/01/21 05:31:19;;;;;;;;;;;;;;;;;;5053270;28;19913;-75
2023/01/21 05:33:46;;;;;;;;;;;;;;;;;;5051634;28;19916;-76
2023/01/21 05:36:11;;;;;;;;;;;;;;;;;;5053020;28;20010;-75
2023/01/21 05:38:37;;;;;;;;;;;;;;;;;;5053306;28;20369;-76
2023/01/21 05:41:03;;;;;;;;;;;;;;;;;;5052980;28;19912;-76
2023/01/21 05:43:29;;;;;;;;;;;;;;;;;;5053515;28;19955;-75
2023/01/21 05:45:55;;;;;;;;;;;;;;;;;;5053258;28;19909;-75
2023/01/21 05:48:21;;;;;;;;;;;;;;;;;;5053069;28;20423;-76
2023/01/21 05:50:47;;;;;;;;;;;;;;;;;;5053296;28;19909;-76
2023/01/21 05:53:13;;;;;;;;;;;;;;;;;;5052053;28;19913;-77
2023/01/21 05:55:39;;;;;;;;;;;;;;;;;;5052851;28;19916;-76
2023/01/21 05:58:05;;;;;;;;;;;;;;;;;;5051285;28;20399;-77
2023/01/21 06:00:31;;;;;;;;;;;;;;;;;;5053224;28;19912;-75
2023/01/21 06:02:57;;;;;;;;;;;;;;;;;;5052810;28;19909;-76
2023/01/21 06:05:23;;;;;;;;;;;;;;;;;;5052763;28;19920;-76
2023/01/21 06:07:48;;;;;;;;;;;;;;;;;;5051107;28;19909;-76
2023/01/21 06:10:14;;;;;;;;;;;;;;;;;;5051848;28;20265;-76
2023/01/21 06:12:40;;;;;;;;;;;;;;;;;;5053156;28;19916;-75
2023/01/21 06:15:06;;;;;;;;;;;;;;;;;;5053127;28;19949;-75
2023/01/21 06:17:32;;;;;;;;;;;;;;;;;;5054653;28;19909;-76
2023/01/21 06:19:58;;;;;;;;;;;;;;;;;;5056055;28;20004;-75
2023/01/21 06:22:24;;;;;;;;;;;;;;;;;;5057102;28;19909;-76
2023/01/21 06:24:50;;;;;;;;;;;;;;;;;;5055673;28;19909;-76
2023/01/21 06:27:16;;;;;;;;;;;;;;;;;;5056763;28;20018;-76
2023/01/21 06:29:42;;;;;;;;;;;;;;;;;;5057003;28;19959;-75
2023/01/21 06:32:08;;;;;;;;;;;;;;;;;;5057228;28;19958;-76
2023/01/21 06:34:34;;;;;;;;;;;;;;;;;;5056956;28;19944;-76
2023/01/21 06:37:00;;;;;;;;;;;;;;;;;;5055447;28;19909;-76
2023/01/21 06:39:26;;;;;;;;;;;;;;;;;;5055312;28;19909;-76
2023/01/21 06:41:52;;;;;;;;;;;;;;;;;;5056353;28;19994;-76
2023/01/21 06:44:18;;;;;;;;;;;;;;;;;;5056450;28;20285;-75
2023/01/21 06:46:44;;;;;;;;;;;;;;;;;;5056397;28;19951;-75
2023/01/21 06:49:10;;;;;;;;;;;;;;;;;;5055248;28;20365;-76
2023/01/21 06:51:35;;;;;;;;;;;;;;;;;;5055289;28;19955;-76
2023/01/21 06:54:01;;;;;;;;;;;;;;;;;;5056546;28;19909;-75
2023/01/21 06:56:27;;;;;;;;;;;;;;;;;;5057590;28;19909;-75
2023/01/21 06:58:53;;;;;;;;;;;;;;;;;;5049618;28;19929;-78
2023/01/21 07:01:19;;;;;;;;;;;;;;;;;;5039926;28;19920;-78
2023/01/21 07:03:45;;;;;;;;;;;;;;;;;;5040384;28;19909;-78
2023/01/21 07:06:11;;;;;;;;;;;;;;;;;;5039297;28;20384;-75
2023/01/21 07:08:37;;;;;;;;;;;;;;;;;;5037000;28;19916;-75
2023/01/21 07:11:03;;;;;;;;;;;;;;;;;;5036603;28;19916;-75
2023/01/21 07:13:29;;;;;;;;;;;;;;;;;;5036567;28;19909;-74
2023/01/21 07:15:54;;;;;;;;;;;;;;;;;;5034897;28;19909;-74
2023/01/21 07:18:20;;;;;;;;;;;;;;;;;;5036074;28;19917;-74
2023/01/21 07:20:46;;;;;;;;;;;;;;;;;;5035230;28;20400;-75
2023/01/21 07:23:12;;;;;;;;;;;;;;;;;;5034528;28;19909;-74
2023/01/21 07:25:38;;;;;;;;;;;;;;;;;;5035746;28;19989;-76
2023/01/21 07:28:04;;;;;;;;;;;;;;;;;;5035505;28;19913;-75
2023/01/21 07:30:30;;;;;;;;;;;;;;;;;;5033795;28;19909;-74
2023/01/21 07:32:56;;;;;;;;;;;;;;;;;;5035389;28;19909;-75
2023/01/21 07:35:21;;;;;;;;;;;;;;;;;;5035436;28;19917;-74
2023/01/21 07:37:47;;;;;;;;;;;;;;;;;;5033816;28;19910;-75
2023/01/21 07:40:13;;;;;;;;;;;;;;;;;;5033870;28;20431;-75
2023/01/21 07:42:39;;;;;;;;;;;;;;;;;;5035235;28;19913;-74
2023/01/21 07:45:05;;;;;;;;;;;;;;;;;;5033352;28;19967;-75
2023/01/21 07:47:31;;;;;;;;;;;;;;;;;;5034849;28;19955;-74
2023/01/21 07:49:57;;;;;;;;;;;;;;;;;;5034502;28;20000;-75
2023/01/21 07:52:23;;;;;;;;;;;;;;;;;;5033884;28;19913;-75
2023/01/21 07:54:49;;;;;;;;;;;;;;;;;;5035438;28;19945;-75
2023/01/21 07:57:15;;;;;;;;;;;;;;;;;;5032868;28;20396;-75
2023/01/21 07:59:41;;;;;;;;;;;;;;;;;;5033762;28;19913;-75
2023/01/21 08:02:06;;;;;;;;;;;;;;;;;;5034918;28;19982;-74
2023/01/21 08:04:32;;;;;;;;;;;;;;;;;;5033769;28;19921;-75
2023/01/21 08:07:00;;;;;;;;;;;;;;;;;;5034682;28;19916;-75
2023/01/21 08:09:26;;;;;;;;;;;;;;;;;;5034608;28;19916;-74
2023/01/21 08:11:52;;;;;;;;;;;;;;;;;;5033313;28;20012;-74
2023/01/21 08:14:18;;;;;;;;;;;;;;;;;;5034521;28;19916;-74
2023/01/21 08:16:44;;;;;;;;;;;;;;;;;;5034414;28;19913;-74
2023/01/21 08:19:10;;;;;;;;;;;;;;;;;;5034358;28;20405;-75
2023/01/21 08:21:36;;;;;;;;;;;;;;;;;;5034600;28;19948;-75
2023/01/21 08:24:02;;;;;;;;;;;;;;;;;;5033420;28;19953;-74
2023/01/21 08:26:27;;;;;;;;;;;;;;;;;;5033903;28;20266;-77
2023/01/21 08:28:54;;;;;;;;;;;;;;;;;;5033990;28;20012;-74
2023/01/21 08:31:19;;;;;;;;;;;;;;;;;;5033014;28;19913;-74
2023/01/21 08:33:45;;;;;;;;;;;;;;;;;;5034138;28;20054;-75
2023/01/21 08:36:11;;;;;;;;;;;;;;;;;;5032595;28;19909;-74
2023/01/21 08:38:38;;;;;;;;;;;;;;;;;;5032424;28;19916;-75
2023/01/21 08:41:04;;;;;;;;;;;;;;;;;;5032239;28;20027;-74
2023/01/21 08:43:30;;;;;;;;;;;;;;;;;;5033934;28;19931;-75
2023/01/21 08:45:57;;;;;;;;;;;;;;;;;;5033790;28;19909;-74
2023/01/21 08:48:23;;;;;;;;;;;;;;;;;;5032900;28;19917;-74
2023/01/21 08:50:49;;;;;;;;;;;;;;;;;;5033732;28;19955;-75
2023/01/21 08:53:14;;;;;;;;;;;;;;;;;;5031996;28;19909;-74
2023/01/21 08:55:40;;;;;;;;;;;;;;;;;;5033446;28;19909;-75
2023/01/21 08:58:06;;;;;;;;;;;;;;;;;;5033455;28;19963;-75
2023/01/21 09:00:32;;;;;;;;;;;;;;;;;;5033480;28;19913;-77
2023/01/21 09:02:58;;;;;;;;;;;;;;;;;;5031940;28;20384;-75
2023/01/21 09:05:24;;;;;;;;;;;;;;;;;;5032290;28;19909;-74
2023/01/21 09:07:50;;;;;;;;;;;;;;;;;;5032135;28;19909;-74
2023/01/21 09:13:00;;;;;;;;;;;;;;;;;;5033632;28;20032;-75
2023/01/21 09:15:26;;;;;;;;;;;;;;;;;;5033247;28;19971;-75
2023/01/21 09:17:52;;;;;;;;;;;;;;;;;;5033368;28;19995;-74
2023/01/21 09:20:18;;;;;;;;;;;;;;;;;;5033581;28;19913;-74
2023/01/21 09:22:44;;;;;;;;;;;;;;;;;;5033470;28;20396;-74
2023/01/21 09:25:10;;;;;;;;;;;;;;;;;;5032011;28;20404;-76
2023/01/21 09:27:36;;;;;;;;;;;;;;;;;;5032125;28;19909;-76
2023/01/21 09:30:02;;;;;;;;;;;;;;;;;;5032320;28;19932;-76
2023/01/21 09:32:28;;;;;;;;;;;;;;;;;;5033615;28;20366;-76
2023/01/21 09:34:54;;;;;;;;;;;;;;;;;;5033492;28;19931;-76
2023/01/21 09:37:19;;;;;;;;;;;;;;;;;;5033326;28;19909;-76
2023/01/21 09:39:45;;;;;;;;;;;;;;;;;;5033452;28;19916;-75
2023/01/21 09:42:11;;;;;;;;;;;;;;;;;;5033215;28;19913;-76
2023/01/21 09:44:38;;;;;;;;;;;;;;;;;;5033166;28;20432;-77
2023/01/21 09:47:04;;;;;;;;;;;;;;;;;;5034137;28;19969;-76
2023/01/21 09:49:30;;;;;;;;;;;;;;;;;;5034577;28;20345;-77
2023/01/21 09:51:56;;;;;;;;;;;;;;;;;;5036109;28;19987;-76
2023/01/21 09:54:22;;;;;;;;;;;;;;;;;;5037518;28;19962;-76
2023/01/21 09:56:48;;;;;;;;;;;;;;;;;;5035927;28;20281;-76
2023/01/21 09:59:14;;;;;;;;;;;;;;;;;;5047542;28;19913;-76
2023/01/21 10:01:40;;;;;;;;;;;;;;;;;;5056030;28;19916;-73
2023/01/21 10:04:06;;;;;;;;;;;;;;;;;;5057163;28;20376;-73
2023/01/21 10:06:32;;;;;;;;;;;;;;;;;;5056629;28;19915;-74
2023/01/21 10:08:58;;;;;;;;;;;;;;;;;;5056918;28;19999;-73
2023/01/21 10:11:24;;;;;;;;;;;;;;;;;;5048623;28;19944;-75
2023/01/21 10:13:49;;;;;;;;;;;;;;;;;;5057243;28;19909;-76
2023/01/21 10:16:15;;;;;;;;;;;;;;;;;;5056049;28;19908;-76
2023/01/21 10:18:41;;;;;;;;;;;;;;;;;;5056190;28;20478;-75
2023/01/21 10:21:07;;;;;;;;;;;;;;;;;;5058212;28;19920;-77
2023/01/21 10:23:33;;;;;;;;;;;;;;;;;;5057248;28;19955;-77
2023/01/21 10:25:59;;;;;;;;;;;;;;;;;;5055657;28;19905;-75
2023/01/21 10:28:25;;;;;;;;;;;;;;;;;;5056762;28;19963;-76
2023/01/21 10:30:51;;;;;;;;;;;;;;;;;;5056511;28;20315;-75
2023/01/21 10:33:17;;;;;;;;;;;;;;;;;;5056563;28;20338;-76
2023/01/21 10:35:43;;;;;;;;;;;;;;;;;;5055941;28;19908;-75
2023/01/21 10:38:09;;;;;;;;;;;;;;;;;;5056501;28;20369;-75
2023/01/21 10:40:44;;;;;;;;;;;;;;;;;;5055383;28;19995;-76
2023/01/21 10:43:10;;;;;;;;;;;;;;;;;;5059790;28;19919;-78
2023/01/21 10:45:36;;;;;;;;;;;;;;;;;;5060951;28;20296;-78
2023/01/21 10:48:02;;;;;;;;;;;;;;;;;;5058259;28;19915;-78
2023/01/21 10:50:28;;;;;;;;;;;;;;;;;;5058417;28;19909;-76
2023/01/21 10:52:53;;;;;;;;;;;;;;;;;;5056000;28;19935;-76
2023/01/21 10:55:19;;;;;;;;;;;;;;;;;;5054346;28;19916;-75
2023/01/21 10:57:45;;;;;;;;;;;;;;;;;;5056212;28;19921;-75
2023/01/21 11:00:11;;;;;;;;;;;;;;;;;;5056269;28;19939;-76
2023/01/21 11:02:37;;;;;;;;;;;;;;;;;;5054586;28;19958;-77
2023/01/21 11:05:03;;;;;;;;;;;;;;;;;;5055868;28;19919;-77
2023/01/21 11:07:29;;;;;;;;;;;;;;;;;;5056075;28;19916;-77
2023/01/21 11:09:55;;;;;;;;;;;;;;;;;;5060287;28;20369;-77
2023/01/21 11:12:21;;;;;;;;;;;;;;;;;;5062512;28;19968;-78
2023/01/21 11:14:47;;;;;;;;;;;;;;;;;;5056401;28;20003;-76
2023/01/21 11:17:12;;;;;;;;;;;;;;;;;;5054392;28;20357;-76
2023/01/21 11:19:38;;;;;;;;;;;;;;;;;;5054265;28;19909;-75
2023/01/21 11:22:04;;;;;;;;;;;;;;;;;;5056530;28;19920;-76
2023/01/21 11:24:31;;;;;;;;;;;;;;;;;;5054707;28;19909;-75
2023/01/21 11:26:57;;;;;;;;;;;;;;;;;;5054266;28;20011;-76
2023/01/21 11:29:23;;;;;;;;;;;;;;;;;;5055054;28;19948;-76
2023/01/21 11:31:49;;;;;;;;;;;;;;;;;;5054086;28;19944;-76
2023/01/21 11:34:15;;;;;;;;;;;;;;;;;;5054149;28;19908;-76
2023/01/21 11:36:41;;;;;;;;;;;;;;;;;;5053772;28;19909;-76
2023/01/21 11:39:08;;;;;;;;;;;;;;;;;;5054700;28;19916;-76
2023/01/21 11:41:34;;;;;;;;;;;;;;;;;;5055273;28;20011;-76
2023/01/21 11:44:00;;;;;;;;;;;;;;;;;;5055265;28;19956;-76
2023/01/21 11:46:26;;;;;;;;;;;;;;;;;;5053807;28;19909;-76
2023/01/21 11:48:52;;;;;;;;;;;;;;;;;;5054860;28;19916;-76
2023/01/21 11:51:18;;;;;;;;;;;;;;;;;;5053717;28;20305;-76
2023/01/21 11:53:45;;;;;;;;;;;;;;;;;;5053680;28;19920;-76
2023/01/21 11:56:11;;;;;;;;;;;;;;;;;;5053704;28;19990;-77
2023/01/21 11:58:37;;;;;;;;;;;;;;;;;;5054877;28;20535;-76
2023/01/21 12:01:03;;;;;;;;;;;;;;;;;;5054866;28;19971;-76
2023/01/21 12:03:29;;;;;;;;;;;;;;;;;;5053643;28;19908;-78
2023/01/21 12:05:55;;;;;;;;;;;;;;;;;;5054215;28;19912;-76
2023/01/21 12:08:21;;;;;;;;;;;;;;;;;;5053331;28;19916;-76
2023/01/21 12:10:47;;;;;;;;;;;;;;;;;;5054908;28;19904;-76
2023/01/21 12:13:13;;;;;;;;;;;;;;;;;;5054594;28;19913;-77
2023/01/21 12:15:39;;;;;;;;;;;;;;;;;;5051417;28;19905;-77
2023/01/21 12:18:05;;;;;;;;;;;;;;;;;;5053645;28;19916;-76
2023/01/21 12:20:31;;;;;;;;;;;;;;;;;;5053499;28;20242;-76
2023/01/21 12:22:57;;;;;;;;;;;;;;;;;;5053583;28;19955;-77
2023/01/21 12:25:23;;;;;;;;;;;;;;;;;;5053600;28;19909;-76
2023/01/21 12:27:48;;;;;;;;;;;;;;;;;;5053123;28;19915;-76
2023/01/21 12:30:14;;;;;;;;;;;;;;;;;;5053791;28;20026;-76
2023/01/21 12:32:40;;;;;;;;;;;;;;;;;;5054184;28;19908;-75
2023/01/21 12:35:06;;;;;;;;;;;;;;;;;;5054244;28;19909;-76
2023/01/21 12:37:32;;;;;;;;;;;;;;;;;;5054570;28;19908;-76
2023/01/21 12:39:58;;;;;;;;;;;;;;;;;;5053916;28;19961;-76
2023/01/21 12:42:26;;;;;;;;;;;;;;;;;;5053061;28;20357;-76
2023/01/21 12:44:51;;;;;;;;;;;;;;;;;;5054006;28;20538;-76
2023/01/21 12:47:17;;;;;;;;;;;;;;;;;;5053726;28;19943;-76
2023/01/21 12:49:43;;;;;;;;;;;;;;;;;;5054018;28;19959;-76
2023/01/21 12:52:09;;;;;;;;;;;;;;;;;;5053553;28;19909;-74
2023/01/21 12:54:35;;;;;;;;;;;;;;;;;;5053598;28;19909;-75
2023/01/21 12:57:01;;;;;;;;;;;;;;;;;;5052455;28;20285;-76
2023/01/21 12:59:27;;;;;;;;;;;;;;;;;;5053565;28;19909;-76
2023/01/21 13:01:53;;;;;;;;;;;;;;;;;;5053431;28;20361;-76
2023/01/21 13:04:21;;;;;;;;;;;;;;;;;;5052117;28;20383;-76
2023/01/21 13:06:47;;;;;;;;;;;;;;;;;;5053717;28;20277;-77
2023/01/21 13:09:13;;;;;;;;;;;;;;;;;;5053686;28;19904;-77
2023/01/21 13:11:38;;;;;;;;;;;;;;;;;;5054546;28;19916;-76
2023/01/21 13:14:04;;;;;;;;;;;;;;;;;;5053163;28;19905;-76
2023/01/21 13:16:30;;;;;;;;;;;;;;;;;;5053534;28;19951;-76
2023/01/21 13:18:56;;;;;;;;;;;;;;;;;;5052346;28;19904;-76
2023/01/21 13:21:22;;;;;;;;;;;;;;;;;;5053392;28;20447;-75
2023/01/21 13:23:48;;;;;;;;;;;;;;;;;;5051668;28;19909;-77
2023/01/21 13:26:14;;;;;;;;;;;;;;;;;;5052681;28;20196;-76
2023/01/21 13:28:40;;;;;;;;;;;;;;;;;;5052417;28;19916;-77
2023/01/21 13:31:06;;;;;;;;;;;;;;;;;;5051418;28;19909;-76
2023/01/21 13:33:31;;;;;;;;;;;;;;;;;;5051144;28;19935;-76
2023/01/21 13:35:57;;;;;;;;;;;;;;;;;;5053687;28;20007;-76
2023/01/21 13:38:23;;;;;;;;;;;;;;;;;;5052626;28;20391;-76
2023/01/21 13:40:49;;;;;;;;;;;;;;;;;;5051688;28;19917;-75
2023/01/21 13:43:15;;;;;;;;;;;;;;;;;;5053431;28;19909;-76
2023/01/21 13:45:41;;;;;;;;;;;;;;;;;;5051355;28;19909;-75
2023/01/21 13:48:07;;;;;;;;;;;;;;;;;;5052824;28;19970;-76
2023/01/21 13:50:33;;;;;;;;;;;;;;;;;;5052248;28;19908;-76
2023/01/21 13:52:59;;;;;;;;;;;;;;;;;;5053354;28;19909;-76
2023/01/21 13:55:24;;;;;;;;;;;;;;;;;;5052142;28;19916;-75
2023/01/21 13:57:50;;;;;;;;;;;;;;;;;;5053048;28;20408;-76
2023/01/21 14:00:16;;;;;;;;;;;;;;;;;;5052186;28;19969;-75
2023/01/21 14:02:42;;;;;;;;;;;;;;;;;;5054369;28;20377;-74
2023/01/21 14:05:08;;;;;;;;;;;;;;;;;;5053209;28;20003;-75
2023/01/21 14:07:34;;;;;;;;;;;;;;;;;;5054969;28;20363;-76
2023/01/21 14:10:00;;;;;;;;;;;;;;;;;;5053120;28;19909;-73
2023/01/21 14:12:26;;;;;;;;;;;;;;;;;;5053312;28;19915;-75
2023/01/21 14:14:52;;;;;;;;;;;;;;;;;;5053075;28;19912;-75
2023/01/21 14:17:18;;;;;;;;;;;;;;;;;;5055178;28;19966;-75
2023/01/21 14:19:44;;;;;;;;;;;;;;;;;;5055931;28;20717;-76
2023/01/21 14:22:09;;;;;;;;;;;;;;;;;;5055109;28;20011;-76
2023/01/21 14:24:35;;;;;;;;;;;;;;;;;;5053355;28;20332;-75
2023/01/21 14:27:01;;;;;;;;;;;;;;;;;;5054359;28;19997;-74
2023/01/21 14:29:27;;;;;;;;;;;;;;;;;;5057486;28;20022;-76
2023/01/21 14:31:53;;;;;;;;;;;;;;;;;;5057570;28;19913;-76
2023/01/21 14:34:19;;;;;;;;;;;;;;;;;;5052686;28;19909;-75
2023/01/21 14:36:45;;;;;;;;;;;;;;;;;;5052762;28;19952;-75
2023/01/21 14:39:11;;;;;;;;;;;;;;;;;;5054858;28;19909;-76
2023/01/21 14:41:37;;;;;;;;;;;;;;;;;;5054732;28;19920;-75
2023/01/21 14:44:03;;;;;;;;;;;;;;;;;;5049403;28;19913;-74
2023/01/21 14:46:29;;;;;;;;;;;;;;;;;;5035766;28;20400;-76
2023/01/21 14:48:55;;;;;;;;;;;;;;;;;;5035087;28;20011;-75
2023/01/21 14:51:21;;;;;;;;;;;;;;;;;;5036276;28;19910;-74
2023/01/21 14:53:46;;;;;;;;;;;;;;;;;;5036108;28;19935;-75
2023/01/21 14:56:12;;;;;;;;;;;;;;;;;;5035490;28;20009;-75
2023/01/21 14:58:38;;;;;;;;;;;;;;;;;;5089105;22;19926;-80
2023/01/21 15:01:05;;;;;;;;;;;;;;;;;;5078660;28;20417;-79
2023/01/21 15:03:31;;;;;;;;;;;;;;;;;;5074442;28;19908;-78
2023/01/21 15:05:57;;;;;;;;;;;;;;;;;;5074193;28;20077;-80
2023/01/21 15:08:23;;;;;;;;;;;;;;;;;;5073907;28;19908;-78
2023/01/21 15:10:49;;;;;;;;;;;;;;;;;;5074063;28;19911;-78
2023/01/21 15:13:15;;;;;;;;;;;;;;;;;;5073539;28;19908;-79
2023/01/21 15:15:41;;;;;;;;;;;;;;;;;;5073802;28;19905;-75
2023/01/21 15:18:07;;;;;;;;;;;;;;;;;;5073521;28;19962;-75
2023/01/21 15:20:32;;;;;;;;;;;;;;;;;;5073453;28;20312;-75
2023/01/21 15:22:58;;;;;;;;;;;;;;;;;;5074858;28;19908;-77
2023/01/21 15:25:24;;;;;;;;;;;;;;;;;;5074815;28;19956;-77
2023/01/21 15:27:50;;;;;;;;;;;;;;;;;;5073422;28;19984;-77
2023/01/21 15:30:16;;;;;;;;;;;;;;;;;;5073565;28;19909;-77
2023/01/21 15:32:42;;;;;;;;;;;;;;;;;;5072627;28;19915;-77
2023/01/21 15:35:08;;;;;;;;;;;;;;;;;;5074844;28;19908;-78
2023/01/21 15:37:34;;;;;;;;;;;;;;;;;;5075544;28;19908;-79
2023/01/21 15:40:00;;;;;;;;;;;;;;;;;;5078341;28;19916;-80
2023/01/21 15:42:26;;;;;;;;;;;;;;;;;;5074529;28;19913;-80
2023/01/21 15:44:52;;;;;;;;;;;;;;;;;;5074432;28;19996;-80
2023/01/21 15:47:18;;;;;;;;;;;;;;;;;;5076654;28;19956;-80
2023/01/21 15:49:45;;;;;;;;;;;;;;;;;;5080673;28;20011;-80
2023/01/21 15:52:12;;;;;;;;;;;;;;;;;;5085620;28;19909;-81
2023/01/21 15:54:38;;;;;;;;;;;;;;;;;;5088315;28;19913;-80
2023/01/21 15:57:04;;;;;;;;;;;;;;;;;;5077758;28;19930;-81
2023/01/21 15:59:29;;;;;;;;;;;;;;;;;;5077196;28;19912;-80
2023/01/21 16:01:55;;;;;;;;;;;;;;;;;;5073469;28;20299;-80
2023/01/21 16:04:22;;;;;;;;;;;;;;;;;;5074167;28;19909;-81
2023/01/21 16:06:47;;;;;;;;;;;;;;;;;;5074904;28;19940;-81
2023/01/21 16:09:13;;;;;;;;;;;;;;;;;;5073275;28;19916;-80
2023/01/21 16:11:39;;;;;;;;;;;;;;;;;;5073691;28;20348;-80
2023/01/21 16:14:05;;;;;;;;;;;;;;;;;;5074971;28;20360;-79
2023/01/21 16:16:31;;;;;;;;;;;;;;;;;;5074372;28;19915;-80
2023/01/21 16:18:58;;;;;;;;;;;;;;;;;;5074631;28;19912;-79
2023/01/21 16:21:24;;;;;;;;;;;;;;;;;;5073609;28;19913;-76
2023/01/21 16:23:49;;;;;;;;;;;;;;;;;;5075433;28;19909;-79
2023/01/21 16:26:15;;;;;;;;;;;;;;;;;;5073627;28;19904;-81
2023/01/21 16:28:42;;;;;;;;;;;;;;;;;;5073449;28;19909;-80
2023/01/21 16:31:07;;;;;;;;;;;;;;;;;;5074092;28;20327;-79
2023/01/21 16:33:33;;;;;;;;;;;;;;;;;;5074195;28;19915;-80
2023/01/21 16:35:59;;;;;;;;;;;;;;;;;;5088244;28;19909;-80
2023/01/21 16:38:25;;;;;;;;;;;;;;;;;;5095958;28;19909;-80
2023/01/21 16:40:51;;;;;;;;;;;;;;;;;;5096348;28;19900;-80